Time;durP1;ratioP1;P1;durP2;ratioP2;P2;SDS_P1;SDS_P2;PMS_P1;PMS_P2;Temp;Humidity;BMP_temperature;BMP_pressure;BME280_temperature;BME280_humidity;BME280_pressure;Samples;Min_cycle;Max_cycle;Signal;HPM_P1;HPM_P2
2021/03/07 00:00:19;;;;;;;6.50;4.23;;;-3.90;83.90;;;;;;6193526;23;20479;-94
2021/03/07 00:02:46;;;;;;;6.50;3.90;;;-3.90;84.30;;;;;;6192307;23;20414;-91
2021/03/07 00:05:14;;;;;;;9.45;4.40;;;-3.90;83.80;;;;;;6191207;23;20884;-91
2021/03/07 00:07:42;;;;;;;8.48;4.30;;;-3.90;84.20;;;;;;6192828;23;20387;-94
2021/03/07 00:10:12;;;;;;;6.30;3.80;;;-3.90;84.10;;;;;;6193183;23;20387;-90
2021/03/07 00:12:39;;;;;;;6.40;3.83;;;-3.90;84.50;;;;;;6208343;23;20394;-88
2021/03/07 00:15:08;;;;;;;6.10;4.20;;;-3.90;84.20;;;;;;6207868;23;20447;-89
2021/03/07 00:17:38;;;;;;;10.20;4.00;;;-3.90;84.30;;;;;;6198274;23;20368;-89
2021/03/07 00:20:07;;;;;;;8.27;4.30;;;-3.90;84.20;;;;;;6195282;23;20394;-92
2021/03/07 00:22:34;;;;;;;7.75;4.32;;;-3.90;83.90;;;;;;6191942;23;20426;-92
2021/03/07 00:25:02;;;;;;;6.43;4.30;;;-3.90;83.90;;;;;;6191727;23;20435;-88
2021/03/07 00:27:28;;;;;;;9.80;4.35;;;-3.90;83.80;;;;;;6192141;23;20371;-89
2021/03/07 00:29:55;;;;;;;7.05;4.20;;;-3.90;84.20;;;;;;6208878;23;20368;-91
2021/03/07 00:32:22;;;;;;;7.95;4.22;;;-3.90;84.20;;;;;;6215001;23;20372;-89
2021/03/07 00:34:52;;;;;;;7.85;4.72;;;-4.00;85.00;;;;;;6183688;23;20418;-91
2021/03/07 00:37:19;;;;;;;7.53;4.50;;;-4.10;84.20;;;;;;6191927;23;20448;-89
2021/03/07 00:39:46;;;;;;;6.43;4.50;;;-4.00;83.70;;;;;;6191915;23;20445;-90
2021/03/07 00:42:13;;;;;;;6.40;4.45;;;-3.90;83.10;;;;;;6191490;23;20414;-89
2021/03/07 00:44:40;;;;;;;7.95;4.40;;;-3.80;82.90;;;;;;6191988;23;20388;-90
2021/03/07 00:47:06;;;;;;;5.72;3.88;;;-3.90;83.60;;;;;;6194881;23;20387;-91
2021/03/07 00:49:33;;;;;;;7.50;4.50;;;-4.00;83.50;;;;;;6195658;23;20384;-95
2021/03/07 00:52:04;;;;;;;9.07;4.22;;;-4.10;83.60;;;;;;6195799;23;20868;-90
2021/03/07 00:54:30;;;;;;;9.02;4.43;;;-4.10;83.90;;;;;;6196929;23;20384;-92
2021/03/07 00:56:59;;;;;;;6.87;4.70;;;-4.10;83.50;;;;;;6196790;23;20388;-93
2021/03/07 00:59:27;;;;;;;8.82;5.00;;;-4.00;83.80;;;;;;6185322;22;20363;-92
2021/03/07 01:01:53;;;;;;;7.77;4.70;;;-4.10;84.30;;;;;;6216525;22;20394;-93
2021/03/07 01:04:20;;;;;;;7.70;4.55;;;-4.20;84.30;;;;;;6216523;22;20393;-91
2021/03/07 01:06:47;;;;;;;7.93;4.90;;;-4.30;84.20;;;;;;6216125;22;20410;-92
2021/03/07 01:09:14;;;;;;;7.93;4.87;;;-4.30;84.40;;;;;;6197644;23;20388;-93
2021/03/07 01:11:59;;;;;;;8.57;4.50;;;-4.20;84.10;;;;;;6201348;23;20418;-94
2021/03/07 01:14:26;;;;;;;9.68;4.43;;;-4.10;83.50;;;;;;6199125;23;20387;-91
2021/03/07 01:16:53;;;;;;;8.57;4.93;;;-4.20;83.30;;;;;;6196104;23;20372;-90
2021/03/07 01:19:20;;;;;;;9.88;5.10;;;-4.00;82.80;;;;;;6195036;23;20678;-92
2021/03/07 01:21:47;;;;;;;7.43;4.50;;;-3.90;82.80;;;;;;6190024;23;20403;-93
2021/03/07 01:24:14;;;;;;;8.00;4.60;;;-4.00;82.70;;;;;;6196147;23;20371;-89
2021/03/07 01:26:52;;;;;;;8.50;4.93;;;-3.90;82.60;;;;;;6194041;23;20383;-90
2021/03/07 01:29:21;;;;;;;7.82;4.70;;;-3.90;82.60;;;;;;6198196;23;20425;-91
2021/03/07 01:31:48;;;;;;;8.20;5.07;;;-4.00;81.80;;;;;;6199717;23;20368;-89
2021/03/07 01:34:15;;;;;;;8.05;4.97;;;-3.90;82.30;;;;;;6198764;23;20891;-90
2021/03/07 01:36:44;;;;;;;7.45;4.63;;;-4.00;82.30;;;;;;6224382;23;20372;-90
2021/03/07 01:39:10;;;;;;;8.27;4.90;;;-3.90;81.70;;;;;;6196985;23;20964;-89
2021/03/07 01:41:38;;;;;;;8.23;4.53;;;-3.90;81.60;;;;;;6195945;23;20856;-89
2021/03/07 01:44:06;;;;;;;7.90;5.00;;;-3.90;81.70;;;;;;6195275;23;20379;-90
2021/03/07 01:46:34;;;;;;;7.88;4.88;;;-3.80;82.50;;;;;;6221890;23;20371;-90
2021/03/07 01:49:01;;;;;;;7.95;5.07;;;-3.90;82.20;;;;;;6195417;23;20391;-90
2021/03/07 01:51:29;;;;;;;7.15;4.72;;;-4.00;81.50;;;;;;6195597;23;20387;-89
2021/03/07 01:53:56;;;;;;;7.72;4.47;;;-4.10;81.30;;;;;;6196053;23;20387;-89
2021/03/07 01:56:25;;;;;;;8.30;4.93;;;-4.00;80.80;;;;;;6196394;23;20722;-91
2021/03/07 01:58:54;;;;;;;8.32;4.90;;;-4.00;81.00;;;;;;6196089;23;20383;-90
2021/03/07 02:01:21;;;;;;;7.38;4.72;;;-4.00;81.10;;;;;;6220681;23;20392;-89
2021/03/07 02:03:53;;;;;;;7.93;5.10;;;-4.10;81.50;;;;;;6196326;23;20855;-89
2021/03/07 02:06:24;;;;;;;7.63;4.70;;;-4.00;80.90;;;;;;6194848;23;20395;-89
2021/03/07 02:08:51;;;;;;;8.00;5.05;;;-3.90;81.20;;;;;;6194839;23;20379;-89
2021/03/07 02:11:18;;;;;;;8.23;4.82;;;-3.80;81.90;;;;;;6195879;23;20399;-89
2021/03/07 02:13:47;;;;;;;8.43;4.88;;;-3.70;81.20;;;;;;6196835;23;20376;-89
2021/03/07 02:16:19;;;;;;;8.02;5.00;;;-3.90;80.10;;;;;;6200810;23;20391;-89
2021/03/07 02:18:50;;;;;;;8.40;4.80;;;-4.00;79.70;;;;;;6205733;23;20418;-88
2021/03/07 02:21:23;;;;;;;9.90;5.15;;;-4.00;79.80;;;;;;6206279;23;20383;-90
2021/03/07 02:24:06;;;;;;;11.30;5.20;;;-3.90;81.30;;;;;;6216233;23;20360;-90
2021/03/07 02:26:36;;;;;;;7.43;4.95;;;-3.90;82.10;;;;;;6204084;23;20526;-90
2021/03/07 02:29:04;;;;;;;8.25;5.07;;;-4.10;81.60;;;;;;6194521;23;20393;-89
2021/03/07 02:31:34;;;;;;;7.53;4.95;;;-4.30;81.60;;;;;;6194683;23;20876;-89
2021/03/07 02:34:17;;;;;;;9.05;4.70;;;-4.30;82.40;;;;;;6220172;23;20372;-89
2021/03/07 02:36:57;;;;;;;9.20;4.97;;;-4.30;81.70;;;;;;6196649;23;20459;-91
2021/03/07 02:39:29;;;;;;;7.70;4.63;;;-4.10;81.50;;;;;;6222089;23;20371;-89
2021/03/07 02:42:05;;;;;;;8.23;4.93;;;-4.10;80.80;;;;;;6171948;23;20863;-89
2021/03/07 02:44:36;;;;;;;8.48;4.93;;;-4.10;81.20;;;;;;6221086;23;20388;-90
2021/03/07 02:47:04;;;;;;;9.70;4.97;;;-4.10;80.60;;;;;;6195500;23;20446;-90
2021/03/07 02:49:35;;;;;;;7.60;4.80;;;-4.00;80.00;;;;;;6197042;23;20411;-90
2021/03/07 02:52:04;;;;;;;8.02;4.80;;;-4.00;80.00;;;;;;6198721;23;20387;-90
2021/03/07 02:54:34;;;;;;;8.23;5.13;;;-3.80;81.10;;;;;;6197220;23;20724;-89
2021/03/07 02:57:02;;;;;;;8.40;4.80;;;-3.90;81.40;;;;;;6196318;23;20367;-89
2021/03/07 02:59:30;;;;;;;8.23;4.72;;;-3.90;80.60;;;;;;6197123;23;20419;-90
2021/03/07 03:02:03;;;;;;;8.82;5.20;;;-4.00;80.10;;;;;;6197666;23;20387;-89
2021/03/07 03:04:31;;;;;;;7.90;5.10;;;-4.00;81.50;;;;;;6196331;23;20391;-89
2021/03/07 03:06:58;;;;;;;9.07;5.07;;;-4.00;81.60;;;;;;6173309;23;20384;-89
2021/03/07 03:09:28;;;;;;;9.77;4.93;;;-4.20;83.10;;;;;;6196068;23;20391;-90
2021/03/07 03:11:58;;;;;;;8.43;5.05;;;-4.30;83.90;;;;;;6195946;23;20395;-91
2021/03/07 03:14:26;;;;;;;8.63;5.47;;;-4.30;83.80;;;;;;6196181;23;20387;-90
2021/03/07 03:16:55;;;;;;;8.63;4.83;;;-4.30;84.30;;;;;;6196372;23;20876;-89
2021/03/07 03:19:26;;;;;;;9.27;5.30;;;-4.30;84.20;;;;;;6196601;23;20717;-94
2021/03/07 03:21:55;;;;;;;9.32;5.30;;;-4.30;84.00;;;;;;6194728;23;20399;-90
2021/03/07 03:24:22;;;;;;;8.02;5.30;;;-4.30;83.60;;;;;;6195376;23;20372;-88
2021/03/07 03:26:49;;;;;;;9.93;5.88;;;-4.30;84.10;;;;;;6196052;23;20398;-90
2021/03/07 03:29:17;;;;;;;8.75;4.82;;;-4.30;83.80;;;;;;6195921;23;20462;-89
2021/03/07 03:31:43;;;;;;;8.10;5.25;;;-4.40;84.10;;;;;;6196595;23;20384;-89
2021/03/07 03:34:10;;;;;;;8.55;5.15;;;-4.30;83.70;;;;;;6196542;23;20419;-90
2021/03/07 03:36:39;;;;;;;8.97;5.10;;;-4.50;84.30;;;;;;6196119;23;20398;-90
2021/03/07 03:39:20;;;;;;;9.45;5.10;;;-4.50;84.40;;;;;;6224262;23;20849;-90
2021/03/07 03:41:54;;;;;;;8.20;5.00;;;-4.50;84.10;;;;;;6197833;23;20407;-90
2021/03/07 03:44:24;;;;;;;8.38;4.97;;;-4.40;84.40;;;;;;6197148;23;20371;-89
2021/03/07 03:46:55;;;;;;;8.60;5.35;;;-4.40;85.00;;;;;;6196247;23;20387;-90
2021/03/07 03:49:51;;;;;;;10.27;5.30;;;-4.40;85.10;;;;;;6197662;23;20372;-90
2021/03/07 03:52:20;;;;;;;9.05;5.30;;;-4.60;85.30;;;;;;6198576;23;20391;-89
2021/03/07 03:55:10;;;;;;;8.07;5.45;;;-4.60;85.30;;;;;;6200510;23;20841;-91
2021/03/07 03:57:42;;;;;;;6.82;5.10;;;-4.60;85.50;;;;;;6200950;23;20388;-90
2021/03/07 04:00:16;;;;;;;8.70;5.30;;;-4.70;85.10;;;;;;6226726;23;20372;-90
2021/03/07 04:02:44;;;;;;;10.60;5.53;;;-4.70;85.20;;;;;;6198836;23;20484;-89
2021/03/07 04:05:16;;;;;;;7.85;5.18;;;-4.70;85.30;;;;;;6225401;23;20388;-90
2021/03/07 04:07:48;;;;;;;9.02;5.25;;;-4.70;85.00;;;;;;6199823;23;20394;-90
2021/03/07 04:10:18;;;;;;;8.75;5.00;;;-4.50;83.90;;;;;;6198401;23;20398;-90
2021/03/07 04:12:49;;;;;;;8.25;5.10;;;-4.60;84.10;;;;;;6199978;23;20479;-90
2021/03/07 04:15:21;;;;;;;9.05;4.80;;;-4.60;82.90;;;;;;6213820;22;20355;-92
2021/03/07 04:17:55;;;;;;;8.77;4.93;;;-4.60;82.50;;;;;;6216086;22;20376;-89
2021/03/07 04:20:50;;;;;;;7.90;4.97;;;-4.50;82.30;;;;;;6200440;23;20375;-90
2021/03/07 04:23:18;;;;;;;7.13;4.43;;;-4.70;83.10;;;;;;6196306;23;20403;-89
2021/03/07 04:25:45;;;;;;;8.50;4.78;;;-4.70;83.50;;;;;;6206086;23;20486;-89
2021/03/07 04:28:12;;;;;;;7.85;4.63;;;-4.80;83.30;;;;;;6206150;23;20388;-90
2021/03/07 04:30:40;;;;;;;9.25;5.15;;;-4.80;84.00;;;;;;6224877;23;20410;-91
2021/03/07 04:33:07;;;;;;;6.68;4.40;;;-4.80;84.40;;;;;;6195375;23;20749;-90
2021/03/07 04:35:38;;;;;;;7.45;4.60;;;-4.90;84.20;;;;;;6218741;23;20391;-90
2021/03/07 04:38:07;;;;;;;7.57;4.60;;;-4.90;84.50;;;;;;6195275;23;20821;-89
2021/03/07 04:40:35;;;;;;;9.47;4.87;;;-4.90;83.80;;;;;;6193445;23;20388;-91
2021/03/07 04:43:03;;;;;;;7.00;4.65;;;-4.80;84.10;;;;;;6192911;23;20404;-90
2021/03/07 04:45:30;;;;;;;9.35;5.10;;;-4.90;84.40;;;;;;6194447;23;20414;-90
2021/03/07 04:47:57;;;;;;;10.47;4.70;;;-4.80;83.10;;;;;;6216873;22;20404;-92
2021/03/07 04:50:25;;;;;;;10.35;5.15;;;-4.70;83.50;;;;;;6242544;22;20378;-91
2021/03/07 04:52:52;;;;;;;9.20;5.10;;;-4.70;82.90;;;;;;6217049;22;20363;-90
2021/03/07 04:55:19;;;;;;;8.68;5.10;;;-4.70;82.50;;;;;;6209739;23;20443;-91
2021/03/07 04:57:45;;;;;;;9.10;5.22;;;-4.70;82.50;;;;;;6218175;23;20391;-89
2021/03/07 05:00:14;;;;;;;7.57;4.80;;;-4.70;83.30;;;;;;6218412;23;20403;-89
2021/03/07 05:02:41;;;;;;;9.88;5.40;;;-4.80;83.20;;;;;;6192129;23;20399;-89
2021/03/07 05:05:08;;;;;;;13.00;7.00;;;-4.70;83.10;;;;;;6191364;23;20919;-89
2021/03/07 05:07:36;;;;;;;9.93;5.80;;;-4.80;82.20;;;;;;6218759;23;20515;-88
2021/03/07 05:10:05;;;;;;;8.80;4.88;;;-4.90;82.40;;;;;;6193735;23;20832;-89
2021/03/07 05:12:34;;;;;;;7.63;4.63;;;-4.70;82.90;;;;;;6192954;23;20891;-88
2021/03/07 05:15:06;;;;;;;6.93;4.20;;;-4.60;82.50;;;;;;6193759;23;20387;-89
2021/03/07 05:17:35;;;;;;;6.85;4.43;;;-4.90;82.40;;;;;;6220529;23;20423;-88
2021/03/07 05:20:03;;;;;;;7.35;4.30;;;-4.90;83.50;;;;;;6193428;23;20379;-88
2021/03/07 05:22:32;;;;;;;6.78;4.75;;;-5.00;83.50;;;;;;6192974;23;20395;-88
2021/03/07 05:24:58;;;;;;;8.15;4.72;;;-5.10;84.50;;;;;;6193713;23;20467;-88
2021/03/07 05:27:25;;;;;;;10.85;6.55;;;-5.20;84.80;;;;;;6193249;23;20371;-88
2021/03/07 05:29:54;;;;;;;9.95;5.20;;;-5.20;85.10;;;;;;6174250;23;20858;-90
2021/03/07 05:32:21;;;;;;;8.18;5.05;;;-5.10;85.00;;;;;;6187131;23;20385;-88
2021/03/07 05:34:48;;;;;;;8.40;4.95;;;-4.90;84.90;;;;;;6190551;23;20390;-88
2021/03/07 05:37:14;;;;;;;8.35;5.00;;;-5.00;83.30;;;;;;6192318;23;20372;-90
2021/03/07 05:39:41;;;;;;;10.03;4.90;;;-5.00;83.90;;;;;;6191712;23;20391;-89
2021/03/07 05:42:09;;;;;;;6.35;4.43;;;-5.00;83.10;;;;;;6192998;23;20399;-89
2021/03/07 05:44:36;;;;;;;7.78;5.03;;;-5.00;83.50;;;;;;6219549;23;20426;-88
2021/03/07 05:47:03;;;;;;;8.23;4.38;;;-4.90;82.60;;;;;;6192422;23;20388;-88
2021/03/07 05:49:31;;;;;;;7.85;4.50;;;-4.80;82.20;;;;;;6192176;23;20442;-88
2021/03/07 05:51:58;;;;;;;7.97;4.70;;;-4.70;81.40;;;;;;6193328;23;20374;-88
2021/03/07 05:54:24;;;;;;;7.85;4.45;;;-4.50;81.20;;;;;;6191837;23;20422;-89
2021/03/07 05:56:52;;;;;;;6.87;4.20;;;-4.50;80.80;;;;;;6191269;23;20402;-88
2021/03/07 05:59:21;;;;;;;9.20;4.03;;;-4.40;80.10;;;;;;6218331;23;20382;-89
2021/03/07 06:01:47;;;;;;;8.73;4.40;;;-4.40;80.50;;;;;;6191334;23;20692;-89
2021/03/07 06:04:14;;;;;;;6.78;4.15;;;-4.30;80.60;;;;;;6191588;23;20400;-88
2021/03/07 06:06:41;;;;;;;7.85;3.85;;;-4.20;80.30;;;;;;6198170;23;20374;-90
2021/03/07 06:09:26;;;;;;;6.80;4.15;;;-4.20;79.50;;;;;;6240590;23;20851;-89
2021/03/07 06:11:57;;;;;;;7.07;4.53;;;-4.10;79.50;;;;;;6200196;23;20474;-90
2021/03/07 06:14:27;;;;;;;7.25;4.35;;;-4.00;80.20;;;;;;6191001;23;20364;-88
2021/03/07 06:17:04;;;;;;;5.88;4.10;;;-3.80;79.40;;;;;;6191460;23;20437;-89
2021/03/07 06:19:59;;;;;;;6.65;3.67;;;-3.90;81.20;;;;;;6192480;23;20383;-90
2021/03/07 06:22:27;;;;;;;7.65;3.88;;;-3.80;80.00;;;;;;6201684;23;20427;-89
2021/03/07 06:24:57;;;;;;;7.80;3.95;;;-3.80;80.40;;;;;;6204911;23;20694;-90
2021/03/07 06:27:24;;;;;;;6.30;4.07;;;-3.70;80.70;;;;;;6200754;23;20836;-91
2021/03/07 06:30:11;;;;;;;7.45;4.28;;;-3.90;81.60;;;;;;6200738;23;20793;-93
2021/03/07 06:32:39;;;;;;;6.03;4.15;;;-4.20;81.80;;;;;;6190882;23;20449;-90
2021/03/07 06:35:09;;;;;;;8.27;3.93;;;-4.10;83.80;;;;;;6189634;23;20395;-91
2021/03/07 06:38:01;;;;;;;6.65;4.40;;;-4.20;83.80;;;;;;6190805;23;20462;-91
2021/03/07 06:40:40;;;;;;;6.63;4.03;;;-4.10;86.10;;;;;;6189536;23;20391;-94
2021/03/07 06:43:27;;;;;;;7.28;3.90;;;-4.00;84.30;;;;;;6189847;23;20395;-90
2021/03/07 06:46:07;;;;;;;19.73;8.57;;;-3.90;84.50;;;;;;6194292;23;20690;-89
2021/03/07 06:48:37;;;;;;;16.77;7.40;;;-3.90;83.50;;;;;;6194439;23;20422;-90
2021/03/07 06:51:04;;;;;;;12.53;5.97;;;-3.80;83.30;;;;;;6190693;23;20379;-89
2021/03/07 06:53:35;;;;;;;14.55;6.35;;;-3.70;83.70;;;;;;6190512;23;20429;-94
2021/03/07 06:56:02;;;;;;;9.45;5.10;;;-3.60;84.30;;;;;;6190141;23;20387;-89
2021/03/07 06:58:30;;;;;;;7.47;4.30;;;-3.40;82.10;;;;;;6190197;23;20372;-94
2021/03/07 07:00:57;;;;;;;7.87;4.60;;;-2.90;80.10;;;;;;6184369;23;20451;-95
2021/03/07 07:03:31;;;;;;;7.85;4.30;;;-2.20;78.20;;;;;;6184805;23;20945;-89
2021/03/07 07:05:58;;;;;;;11.13;5.07;;;-1.50;72.30;;;;;;6190264;23;20391;-91
2021/03/07 07:08:45;;;;;;;6.82;3.85;;;-0.30;68.90;;;;;;6192668;23;20371;-93
2021/03/07 07:11:13;;;;;;;5.93;3.75;;;1.20;59.30;;;;;;6190478;23;20730;-92
2021/03/07 07:13:48;;;;;;;6.30;3.10;;;2.20;55.10;;;;;;6193283;23;20405;-90
2021/03/07 07:16:34;;;;;;;4.55;3.40;;;2.20;53.40;;;;;;6197863;23;20399;-89
2021/03/07 07:19:02;;;;;;;5.57;3.17;;;2.20;52.50;;;;;;6190815;23;20391;-95
2021/03/07 07:21:29;;;;;;;4.15;2.90;;;2.70;49.60;;;;;;6192912;23;20392;-94
2021/03/07 07:23:59;;;;;;;5.88;3.40;;;2.70;48.60;;;;;;6191490;23;20371;-90
2021/03/07 07:26:27;;;;;;;5.65;2.83;;;2.30;50.20;;;;;;6191269;23;20413;-89
2021/03/07 07:28:54;;;;;;;6.13;3.10;;;2.30;51.00;;;;;;6191860;23;20391;-89
2021/03/07 07:31:23;;;;;;;5.72;3.15;;;2.30;49.50;;;;;;6191185;23;20902;-89
2021/03/07 07:34:16;;;;;;;5.15;3.22;;;2.40;49.10;;;;;;6192623;23;20380;-93
2021/03/07 07:36:54;;;;;;;4.53;2.83;;;2.10;49.30;;;;;;6191861;23;20384;-90
2021/03/07 07:39:32;;;;;;;4.55;3.22;;;1.90;51.00;;;;;;6219946;23;20398;-90
2021/03/07 07:42:26;;;;;;;6.43;3.92;;;2.00;52.20;;;;;;6224216;23;20410;-91
2021/03/07 07:44:54;;;;;;;7.00;3.65;;;2.60;51.10;;;;;;6192758;23;20367;-92
2021/03/07 07:47:22;;;;;;;5.03;3.17;;;3.10;50.20;;;;;;6169412;23;20422;-91
2021/03/07 07:49:52;;;;;;;5.28;3.47;;;3.00;50.00;;;;;;6194284;23;20379;-90
2021/03/07 07:52:25;;;;;;;5.45;3.30;;;3.20;50.60;;;;;;6199111;23;20375;-91
2021/03/07 07:55:00;;;;;;;5.07;3.20;;;3.20;48.70;;;;;;6192809;23;20713;-93
2021/03/07 07:57:36;;;;;;;6.15;3.92;;;3.20;49.10;;;;;;6190879;23;20442;-91
2021/03/07 08:00:07;;;;;;;4.75;3.50;;;2.80;50.00;;;;;;6206955;22;20376;-94
2021/03/07 08:02:42;;;;;;;5.05;3.35;;;2.40;52.90;;;;;;6216274;22;20384;-91
2021/03/07 08:05:22;;;;;;;7.10;3.90;;;2.30;53.40;;;;;;6197420;23;20686;-91
2021/03/07 08:08:03;;;;;;;5.97;3.45;;;2.00;55.60;;;;;;6193512;23;20376;-95
2021/03/07 08:10:48;;;;;;;6.75;3.30;;;1.80;53.90;;;;;;6191299;23;20387;-94
2021/03/07 08:13:36;;;;;;;5.95;3.17;;;1.40;53.50;;;;;;6193681;23;20387;-91
2021/03/07 08:16:06;;;;;;;8.00;3.33;;;1.00;54.70;;;;;;6217204;22;20388;-94
2021/03/07 08:18:46;;;;;;;5.60;3.28;;;0.80;54.60;;;;;;6217827;22;20455;-92
2021/03/07 08:21:15;;;;;;;6.00;3.53;;;0.70;55.80;;;;;;6215392;22;20367;-91
2021/03/07 08:24:00;;;;;;;5.77;3.43;;;0.50;57.10;;;;;;6228832;22;20399;-94
2021/03/07 08:26:57;;;;;;;5.35;3.47;;;0.40;59.10;;;;;;6191447;23;20907;-90
2021/03/07 08:29:45;;;;;;;6.65;3.70;;;0.40;57.70;;;;;;6149275;23;20870;-95
2021/03/07 08:32:36;;;;;;;8.97;5.13;;;0.50;57.20;;;;;;6196083;23;20410;-91
2021/03/07 08:35:11;;;;;;;6.18;3.60;;;0.40;57.40;;;;;;6232977;22;20399;-92
2021/03/07 08:37:39;;;;;;;7.03;3.75;;;0.20;57.80;;;;;;6242153;22;20378;-91
2021/03/07 08:40:31;;;;;;;6.63;3.90;;;0.30;60.00;;;;;;6170568;22;20427;-91
2021/03/07 08:43:20;;;;;;;7.90;4.80;;;0.50;59.50;;;;;;6205625;23;20494;-94
2021/03/07 08:46:12;;;;;;;7.18;3.75;;;0.80;61.30;;;;;;6198083;23;20371;-93
2021/03/07 08:48:48;;;;;;;6.70;3.93;;;0.80;60.00;;;;;;6199186;23;20475;-95
2021/03/07 08:51:17;;;;;;;6.63;3.93;;;0.70;60.70;;;;;;6196105;23;20394;-91
2021/03/07 08:53:46;;;;;;;9.00;4.05;;;0.90;58.60;;;;;;6195690;23;20868;-95
2021/03/07 08:56:13;;;;;;;8.07;3.90;;;1.10;58.30;;;;;;6195013;23;20856;-94
2021/03/07 08:58:47;;;;;;;5.78;3.60;;;1.20;57.70;;;;;;6195997;23;20412;-96
2021/03/07 09:01:18;;;;;;;6.32;3.55;;;1.20;58.10;;;;;;6222312;23;20383;-93
2021/03/07 09:03:58;;;;;;;6.38;3.10;;;1.20;56.70;;;;;;6197796;23;20964;-93
2021/03/07 09:06:46;;;;;;;5.15;3.17;;;1.30;55.10;;;;;;6196539;23;20799;-95
2021/03/07 09:09:21;;;;;;;6.35;3.30;;;1.70;55.00;;;;;;6197242;23;20455;-91
2021/03/07 09:11:57;;;;;;;5.10;3.17;;;1.80;54.70;;;;;;6197026;23;20451;-95
2021/03/07 09:14:33;;;;;;;6.63;3.47;;;1.90;53.50;;;;;;6193835;23;20415;-93
2021/03/07 09:17:06;;;;;;;5.18;3.22;;;2.20;52.70;;;;;;6194870;23;20415;-93
2021/03/07 09:19:35;;;;;;;4.97;2.93;;;2.40;50.30;;;;;;6201271;23;20394;-95
2021/03/07 09:22:09;;;;;;;5.38;3.00;;;2.70;49.80;;;;;;6195768;23;20689;-93
2021/03/07 09:24:37;;;;;;;5.28;3.00;;;3.10;48.90;;;;;;6194462;23;20503;-93
2021/03/07 09:27:12;;;;;;;6.15;3.10;;;3.30;47.20;;;;;;6195333;23;20775;-94
2021/03/07 09:30:02;;;;;;;4.65;3.10;;;3.50;46.90;;;;;;6191898;23;20481;-96
2021/03/07 09:32:35;;;;;;;4.88;2.88;;;3.70;46.40;;;;;;6194086;23;20392;-96
2021/03/07 09:35:16;;;;;;;4.88;2.35;;;4.00;45.00;;;;;;6191898;23;20417;-93
2021/03/07 09:38:04;;;;;;;4.68;2.50;;;4.10;41.70;;;;;;6194545;23;20382;-96
2021/03/07 09:40:40;;;;;;;3.45;2.40;;;3.90;42.60;;;;;;6192804;23;20413;-96
2021/03/07 09:43:15;;;;;;;5.32;2.53;;;3.70;42.60;;;;;;6194596;23;20417;-93
2021/03/07 09:45:50;;;;;;;2.97;1.98;;;3.60;40.20;;;;;;6167336;23;20464;-94
2021/03/07 09:48:36;;;;;;;4.05;2.50;;;3.60;40.70;;;;;;6191439;23;20377;-94
2021/03/07 09:51:16;;;;;;;3.70;2.30;;;3.60;45.20;;;;;;6189284;23;20389;-95
2021/03/07 09:53:44;;;;;;;4.75;2.60;;;3.30;43.90;;;;;;6210693;23;20373;-93
2021/03/07 09:56:41;;;;;;;4.60;2.72;;;3.20;45.40;;;;;;6199763;23;20407;-91
2021/03/07 09:59:09;;;;;;;4.18;2.63;;;3.30;47.00;;;;;;6100538;23;20416;-91
2021/03/07 10:01:45;;;;;;;6.05;3.63;;;3.30;44.10;;;;;;6103559;23;20381;-92
2021/03/07 10:04:30;;;;;;;7.07;3.15;;;3.40;46.90;;;;;;6116218;23;20420;-90
2021/03/07 10:06:59;;;;;;;5.80;2.80;;;3.40;48.00;;;;;;6117338;23;20393;-89
2021/03/07 10:09:27;;;;;;;5.47;3.23;;;3.40;48.70;;;;;;6113307;23;20392;-91
2021/03/07 10:15:41;;;;;;;5.40;3.13;;;3.50;46.40;;;;;;6125701;23;20747;-93
2021/03/07 10:18:13;;;;;;;5.93;3.50;;;3.90;51.10;;;;;;6102444;23;20392;-95
2021/03/07 10:20:43;;;;;;;4.95;3.20;;;4.00;49.50;;;;;;6100361;23;20411;-94
2021/03/07 10:23:10;;;;;;;6.53;3.60;;;4.10;50.90;;;;;;6100251;23;20404;-93
2021/03/07 10:25:41;;;;;;;5.43;3.25;;;4.30;50.70;;;;;;6099740;23;20393;-91
2021/03/07 10:28:33;;;;;;;6.10;3.10;;;4.40;48.50;;;;;;6125481;23;20475;-94
2021/03/07 10:31:11;;;;;;;5.00;2.92;;;4.60;48.50;;;;;;6100627;23;20870;-93
2021/03/07 10:33:40;;;;;;;4.55;3.03;;;4.50;47.10;;;;;;6101248;23;20900;-92
2021/03/07 10:36:18;;;;;;;6.53;3.28;;;4.40;48.40;;;;;;6145301;23;20384;-90
2021/03/07 10:38:49;;;;;;;5.20;3.35;;;4.60;48.60;;;;;;6160698;23;20443;-94
2021/03/07 10:41:30;;;;;;;6.10;3.00;;;4.50;48.20;;;;;;6160839;23;20389;-95
2021/03/07 10:43:58;;;;;;;5.32;3.28;;;4.70;49.90;;;;;;6185143;23;20432;-91
2021/03/07 10:46:38;;;;;;;4.75;3.08;;;4.90;52.00;;;;;;6160723;23;20373;-90
2021/03/07 10:49:21;;;;;;;5.35;3.10;;;5.10;47.90;;;;;;6163230;23;20505;-91
2021/03/07 10:51:48;;;;;;;6.95;3.80;;;5.20;49.70;;;;;;6159352;23;20496;-95
2021/03/07 10:54:14;;;;;;;5.73;3.43;;;5.50;48.70;;;;;;6159529;23;20393;-91
2021/03/07 10:56:41;;;;;;;9.25;5.07;;;5.70;49.80;;;;;;6160387;23;20377;-95
2021/03/07 10:59:10;;;;;;;7.75;3.97;;;5.60;49.40;;;;;;6161042;23;20385;-91
2021/03/07 11:01:39;;;;;;;7.10;3.53;;;5.50;51.60;;;;;;6185878;23;20454;-91
2021/03/07 11:04:07;;;;;;;8.33;3.70;;;5.60;50.50;;;;;;6160624;23;20405;-90
2021/03/07 11:06:34;;;;;;;7.75;3.70;;;5.90;49.20;;;;;;6159294;23;20421;-91
2021/03/07 11:09:00;;;;;;;6.10;3.50;;;6.10;49.30;;;;;;6160992;23;20706;-91
2021/03/07 11:11:27;;;;;;;5.50;3.40;;;6.10;47.20;;;;;;6163538;23;20692;-93
2021/03/07 11:13:54;;;;;;;6.15;3.60;;;6.10;48.60;;;;;;6165670;23;20376;-96
2021/03/07 11:16:21;;;;;;;5.63;3.50;;;6.20;50.40;;;;;;6162623;23;20395;-92
2021/03/07 11:18:53;;;;;;;5.05;3.22;;;6.30;49.40;;;;;;6162369;23;20391;-92
2021/03/07 11:21:20;;;;;;;7.20;3.80;;;6.40;49.30;;;;;;6161473;23;20403;-94
2021/03/07 11:23:46;;;;;;;5.95;3.40;;;6.50;48.00;;;;;;6160901;23;20408;-92
2021/03/07 11:26:13;;;;;;;6.38;3.80;;;6.70;48.50;;;;;;6187678;23;20898;-92
2021/03/07 11:28:40;;;;;;;7.28;3.78;;;7.10;46.70;;;;;;6164206;23;20393;-93
2021/03/07 11:31:31;;;;;;;5.65;3.30;;;7.30;46.70;;;;;;6198058;23;20388;-94
2021/03/07 11:34:42;;;;;;;6.10;3.30;;;7.50;46.90;;;;;;6139193;23;20383;-95
2021/03/07 11:38:15;;;;;;;7.78;3.65;;;7.40;44.60;;;;;;6122998;23;20484;-92
2021/03/07 11:40:57;;;;;;;5.40;3.38;;;7.30;45.90;;;;;;6095433;23;20422;-93
2021/03/07 11:43:32;;;;;;;5.18;3.53;;;7.40;46.30;;;;;;6135205;23;20490;-94
2021/03/07 11:46:26;;;;;;;8.02;3.90;;;7.30;46.70;;;;;;6058029;23;20375;-93
2021/03/07 11:49:21;;;;;;;7.22;3.72;;;7.30;45.80;;;;;;6177250;23;20430;-93
2021/03/07 11:52:33;;;;;;;6.97;4.00;;;7.80;47.40;;;;;;6166716;23;20442;-92
2021/03/07 11:55:14;;;;;;;6.47;3.53;;;8.30;46.80;;;;;;6154005;23;20383;-94
2021/03/07 11:57:58;;;;;;;6.53;3.90;;;8.20;43.40;;;;;;6146451;23;20380;-92
2021/03/07 12:00:40;;;;;;;8.60;4.23;;;8.00;46.00;;;;;;6161068;23;20395;-93
2021/03/07 12:03:11;;;;;;;6.75;4.13;;;8.10;46.30;;;;;;6139206;23;20413;-93
2021/03/07 12:06:07;;;;;;;8.68;4.90;;;8.60;46.10;;;;;;6142146;23;20379;-93
2021/03/07 12:09:07;;;;;;;8.13;4.10;;;8.70;46.20;;;;;;6152694;23;20382;-93
2021/03/07 12:11:34;;;;;;;7.20;4.15;;;9.00;45.10;;;;;;6185922;23;20386;-92
2021/03/07 12:14:01;;;;;;;7.05;4.55;;;8.80;46.00;;;;;;6186794;23;20389;-93
2021/03/07 12:16:27;;;;;;;6.47;4.30;;;8.60;45.70;;;;;;6201657;23;20473;-94
2021/03/07 12:18:54;;;;;;;7.72;4.60;;;8.80;46.20;;;;;;6211083;23;20369;-95
2021/03/07 12:25:23;;;;;;;7.25;4.30;;;9.00;47.00;;;;;;6224667;23;20533;-96
2021/03/07 12:27:51;;;;;;;6.68;4.20;;;8.90;44.80;;;;;;6196135;23;20478;-95
2021/03/07 12:30:18;;;;;;;6.95;4.47;;;9.10;43.60;;;;;;6199312;23;20875;-96
2021/03/07 12:35:21;;;;;;;7.32;4.55;;;9.40;42.80;;;;;;6225315;22;20398;-95
2021/03/07 12:37:47;;;;;;;6.85;4.50;;;9.50;43.30;;;;;;6197190;23;20391;-94
2021/03/07 12:40:14;;;;;;;7.60;4.20;;;9.50;42.70;;;;;;6187784;23;20393;-92
2021/03/07 12:42:40;;;;;;;8.45;4.70;;;9.60;42.90;;;;;;6191115;23;20391;-92
2021/03/07 12:45:08;;;;;;;8.93;4.75;;;9.80;44.40;;;;;;6190321;23;20387;-90
2021/03/07 12:47:34;;;;;;;6.90;4.43;;;10.20;42.70;;;;;;6192454;23;20391;-93
2021/03/07 12:50:21;;;;;;;6.15;3.67;;;10.10;41.40;;;;;;6194895;23;20825;-91
2021/03/07 12:52:48;;;;;;;6.63;3.92;;;9.90;39.40;;;;;;6190545;23;20421;-93
2021/03/07 12:55:14;;;;;;;7.22;4.30;;;9.60;40.50;;;;;;6190909;23;20956;-91
2021/03/07 12:57:41;;;;;;;7.07;3.60;;;9.70;42.30;;;;;;6190659;23;20391;-92
2021/03/07 13:00:08;;;;;;;9.80;5.07;;;9.50;42.30;;;;;;6190549;23;20384;-93
2021/03/07 13:02:34;;;;;;;7.65;4.25;;;9.60;42.50;;;;;;6190432;23;20733;-94
2021/03/07 13:05:06;;;;;;;7.78;4.57;;;9.70;42.60;;;;;;6190421;23;20483;-95
2021/03/07 13:07:32;;;;;;;7.70;4.32;;;9.60;42.70;;;;;;6191346;23;20395;-90
2021/03/07 13:10:02;;;;;;;8.60;4.78;;;9.40;42.10;;;;;;6191250;23;20383;-92
2021/03/07 13:12:29;;;;;;;7.13;4.13;;;9.50;42.70;;;;;;6191997;23;20384;-92
2021/03/07 13:14:56;;;;;;;7.03;4.07;;;9.70;40.90;;;;;;6192166;23;20379;-92
2021/03/07 13:17:22;;;;;;;9.57;4.38;;;9.60;40.10;;;;;;6190858;23;20478;-93
2021/03/07 13:19:49;;;;;;;9.38;3.88;;;9.70;40.70;;;;;;6190543;23;20462;-92
2021/03/07 13:22:16;;;;;;;6.88;4.13;;;9.40;39.20;;;;;;6190578;23;20384;-95
2021/03/07 13:24:43;;;;;;;11.32;5.78;;;9.80;40.90;;;;;;6191312;23;20413;-92
2021/03/07 13:27:10;;;;;;;12.20;6.00;;;10.40;38.90;;;;;;6192607;23;20390;-94